Time;durP1;ratioP1;P1;durP2;ratioP2;P2;SDS_P1;SDS_P2;PMS_P1;PMS_P2;Temp;Humidity;BMP_temperature;BMP_pressure;BME280_temperature;BME280_humidity;BME280_pressure;Samples;Min_cycle;Max_cycle;Signal;HPM_P1;HPM_P2
2021/08/04 00:00:37;;;;;;;3.25;2.77;;;;;;;14.20;74.90;97032.61;1788059;79;28335;-85
2021/08/04 00:03:05;;;;;;;3.58;2.58;;;;;;;14.22;74.93;97031.84;1787771;79;26173;-85
2021/08/04 00:05:32;;;;;;;4.90;2.83;;;;;;;14.23;74.89;97029.95;1788187;79;25725;-85
2021/08/04 00:07:59;;;;;;;4.67;3.12;;;;;;;14.21;74.83;97032.08;1788116;79;26328;-85
2021/08/04 00:10:25;;;;;;;5.62;2.83;;;;;;;14.18;74.75;97036.63;1778897;79;25705;-85
2021/08/04 00:12:52;;;;;;;5.37;2.70;;;;;;;14.17;74.78;97039.05;1740939;81;28341;-84
2021/08/04 00:15:19;;;;;;;4.80;2.67;;;;;;;14.18;74.88;97047.48;1765264;80;25809;-85
2021/08/04 00:17:47;;;;;;;12.85;3.37;;;;;;;14.18;74.76;97050.20;1765296;79;25664;-85
2021/08/04 00:20:15;;;;;;;4.37;2.67;;;;;;;14.14;74.66;97051.21;1743846;80;26301;-85
2021/08/04 00:22:42;;;;;;;6.00;2.70;;;;;;;14.08;74.66;97045.94;1776589;79;26556;-85
2021/08/04 00:25:10;;;;;;;3.37;2.47;;;;;;;14.03;74.56;97047.48;1755287;81;27460;-85
2021/08/04 00:27:36;;;;;;;4.45;2.80;;;;;;;13.97;74.66;97047.11;1756693;80;25776;-86
2021/08/04 00:30:06;;;;;;;4.90;2.70;;;;;;;13.94;74.72;97050.83;1788073;79;25720;-85
2021/08/04 00:32:32;;;;;;;6.08;3.45;;;;;;;13.92;74.73;97046.99;1755559;81;25936;-86
2021/08/04 00:34:59;;;;;;;4.35;3.10;;;;;;;13.91;74.74;97038.56;1757077;80;25240;-85
2021/08/04 00:37:25;;;;;;;7.20;3.25;;;;;;;13.88;74.63;97041.78;1785857;79;28129;-85
2021/08/04 00:39:52;;;;;;;5.05;3.35;;;;;;;13.84;74.69;97035.17;1756537;81;26307;-85
2021/08/04 00:42:20;;;;;;;3.70;3.20;;;;;;;13.79;74.76;97032.34;1762510;80;25730;-85
2021/08/04 00:44:47;;;;;;;9.53;3.27;;;;;;;13.77;74.75;97033.11;1757327;80;25777;-86
2021/08/04 00:47:15;;;;;;;6.10;3.33;;;;;;;13.76;74.77;97033.38;1757320;80;25749;-84
2021/08/04 00:49:41;;;;;;;5.17;3.00;;;;;;;13.77;74.84;97025.50;1731203;81;28270;-85
2021/08/04 00:52:08;;;;;;;4.22;2.95;;;;;;;13.78;74.89;97023.09;1756284;79;25664;-85
2021/08/04 00:54:35;;;;;;;5.25;3.60;;;;;;;13.74;74.84;97024.12;1768545;79;25671;-85
2021/08/04 00:57:03;;;;;;;4.97;2.83;;;;;;;13.67;74.85;97018.81;1768559;79;25707;-85
2021/08/04 00:59:30;;;;;;;4.53;2.50;;;;;;;13.65;74.89;97020.94;1768553;79;25769;-85
2021/08/04 01:02:11;;;;;;;6.53;2.92;;;;;;;13.63;74.83;97018.20;1755412;79;27379;-85
2021/08/04 01:04:51;;;;;;;7.10;3.10;;;;;;;13.58;74.79;97016.73;1759115;79;25910;-85
2021/08/04 01:07:29;;;;;;;3.62;2.52;;;;;;;13.54;74.85;97006.05;1753961;79;25706;-85
2021/08/04 01:10:09;;;;;;;5.53;2.83;;;;;;;13.53;74.89;97003.88;1762193;79;25710;-84
2021/08/04 01:12:47;;;;;;;3.17;2.83;;;;;;;13.47;74.86;97006.20;1755577;79;25798;-84
2021/08/04 01:15:14;;;;;;;6.55;3.00;;;;;;;13.32;74.81;97002.63;1787364;78;27370;-85
2021/08/04 01:17:46;;;;;;;5.17;2.80;;;;;;;13.18;75.00;96998.52;1768383;79;26317;-85
2021/08/04 01:20:23;;;;;;;7.28;3.25;;;;;;;13.14;75.35;97000.08;1768578;79;25788;-84
2021/08/04 01:23:16;;;;;;;4.55;2.98;;;;;;;13.16;75.59;97005.27;1768564;79;25671;-84
2021/08/04 01:25:46;;;;;;;;;;;;;;;13.18;75.65;96997.70;1740542;81;25793;-85
2021/08/04 01:28:29;;;;;;;7.15;3.15;;;;;;;13.16;75.71;96996.58;1768131;79;28383;-85
2021/08/04 01:31:07;;;;;;;3.65;2.60;;;;;;;13.19;75.72;96993.93;1769695;79;25730;-85
2021/08/04 01:33:38;;;;;;;5.58;2.75;;;;;;;13.22;75.69;96996.17;1767284;79;25756;-84
2021/08/04 01:36:07;;;;;;;3.37;2.80;;;;;;;13.23;75.62;96997.29;1768450;79;25781;-84
2021/08/04 01:38:34;;;;;;;5.05;2.90;;;;;;;13.25;75.63;96996.53;1767336;79;25672;-84
2021/08/04 01:41:03;;;;;;;4.15;2.75;;;;;;;13.27;75.57;96992.23;1748407;79;27437;-83
2021/08/04 01:43:30;;;;;;;4.92;2.90;;;;;;;13.28;75.51;96992.52;1768348;79;25911;-84
2021/08/04 01:45:58;;;;;;;3.25;2.95;;;;;;;13.28;75.54;97000.66;1746872;79;25783;-84
2021/08/04 01:48:26;;;;;;;4.33;3.33;;;;;;;13.26;75.59;96996.83;1768475;79;26309;-84
2021/08/04 01:50:57;;;;;;;4.00;3.33;;;;;;;13.26;75.75;97000.89;1768555;79;25723;-84
2021/08/04 01:53:24;;;;;;;4.90;3.62;;;;;;;13.29;75.81;97000.39;1768559;79;28377;-84
2021/08/04 01:55:51;;;;;;;4.60;3.27;;;;;;;13.34;75.87;96994.27;1768374;79;26255;-84
2021/08/04 01:58:18;;;;;;;5.95;3.50;;;;;;;13.36;75.89;96999.45;1768427;79;25928;-84
2021/08/04 02:00:44;;;;;;;5.62;3.77;;;;;;;13.38;75.91;97001.40;1768386;79;26274;-84
2021/08/04 02:03:13;;;;;;;8.23;4.08;;;;;;;13.40;75.99;96999.28;1653282;78;26543;-84
2021/08/04 02:05:40;;;;;;;6.62;4.17;;;;;;;13.42;76.01;96999.84;1642080;85;27504;-83
2021/08/04 02:08:29;;;;;;;5.37;3.42;;;;;;;13.43;76.02;96989.29;1642003;85;25902;-84
2021/08/04 02:11:24;;;;;;;6.35;3.92;;;;;;;13.40;76.03;96989.27;1650083;85;25785;-84
2021/08/04 02:14:08;;;;;;;6.53;3.45;;;;;;;13.41;76.12;96988.17;1642035;85;25868;-84
2021/08/04 02:16:58;;;;;;;6.92;3.72;;;;;;;13.41;76.17;96984.09;1650942;85;25767;-84
2021/08/04 02:19:59;;;;;;;5.22;3.77;;;;;;;13.39;76.15;96986.78;1626267;85;27566;-83
2021/08/04 02:22:37;;;;;;;6.42;4.00;;;;;;;13.30;76.23;96981.71;1655331;85;25541;-83
2021/08/04 02:25:24;;;;;;;6.65;3.65;;;;;;;13.25;76.40;96984.33;1642249;85;25959;-84
2021/08/04 02:27:53;;;;;;;9.08;3.20;;;;;;;13.19;76.33;96977.66;1620000;85;25845;-84
2021/08/04 02:30:20;;;;;;;8.15;3.40;;;;;;;13.14;76.46;96980.25;1642176;85;25920;-84
2021/08/04 02:32:48;;;;;;;7.78;4.08;;;;;;;13.13;76.63;96977.25;1647580;85;28262;-84
2021/08/04 02:35:14;;;;;;;7.80;4.08;;;;;;;13.12;76.76;96983.20;1641954;85;25851;-84
2021/08/04 02:37:41;;;;;;;5.80;3.85;;;;;;;13.12;76.84;96985.08;1619917;87;25904;-84
2021/08/04 02:40:09;;;;;;;9.50;4.55;;;;;;;13.17;76.96;96992.80;1657904;84;25753;-83
2021/08/04 02:42:38;;;;;;;7.80;3.72;;;;;;;13.23;77.04;96991.05;1684147;84;25708;-84
2021/08/04 02:45:07;;;;;;;6.17;3.77;;;;;;;13.25;77.05;96991.11;1678551;84;27419;-84
2021/08/04 02:47:35;;;;;;;7.75;3.90;;;;;;;13.29;77.02;96993.61;1678466;84;25468;-83
2021/08/04 02:50:06;;;;;;;9.33;4.12;;;;;;;13.32;77.01;96991.79;1653153;84;25758;-84
2021/08/04 02:52:34;;;;;;;7.55;3.80;;;;;;;13.36;77.02;96993.50;1695231;84;25386;-84
2021/08/04 02:55:01;;;;;;;4.92;3.60;;;;;;;13.39;76.95;96997.63;1678661;84;25752;-83
2021/08/04 02:57:28;;;;;;;8.30;3.75;;;;;;;13.40;76.94;96996.03;1678597;84;27377;-84
2021/08/04 02:59:54;;;;;;;5.28;3.30;;;;;;;13.42;76.95;96997.13;1678479;84;25715;-84
2021/08/04 03:02:21;;;;;;;6.05;3.80;;;;;;;13.44;76.98;96996.36;1677211;84;25779;-84
2021/08/04 03:04:48;;;;;;;4.97;3.85;;;;;;;13.46;76.95;97011.33;1673603;84;25763;-84
2021/08/04 03:07:14;;;;;;;4.72;3.47;;;;;;;13.48;77.03;97005.67;1673419;84;25784;-83
2021/08/04 03:09:41;;;;;;;6.40;3.92;;;;;;;13.53;77.03;97003.05;1673621;84;27529;-84
2021/08/04 03:12:09;;;;;;;6.90;3.65;;;;;;;13.56;77.01;97008.00;1673569;84;25732;-84
2021/08/04 03:14:36;;;;;;;6.70;4.10;;;;;;;13.60;76.99;97016.79;1673734;84;26419;-85
2021/08/04 03:17:06;;;;;;;5.95;3.60;;;;;;;13.52;76.83;97008.20;1673342;84;25785;-84
2021/08/04 03:19:33;;;;;;;9.10;4.30;;;;;;;13.49;77.03;97004.61;1673703;84;25810;-84
2021/08/04 03:22:00;;;;;;;5.40;4.00;;;;;;;13.47;77.19;97007.56;1684172;84;28415;-84
2021/08/04 03:24:26;;;;;;;7.35;4.17;;;;;;;13.45;77.25;97004.79;1673657;84;26112;-83
2021/08/04 03:26:53;;;;;;;4.55;4.00;;;;;;;13.41;77.39;97011.74;1673594;84;25705;-84
2021/08/04 03:29:20;;;;;;;4.90;4.12;;;;;;;13.41;77.52;97004.97;1673692;84;25716;-84
2021/08/04 03:31:46;;;;;;;6.75;3.83;;;;;;;13.40;77.52;97017.72;1673672;84;25853;-84
2021/08/04 03:34:13;;;;;;;8.75;3.67;;;;;;;13.40;77.67;97020.44;1673649;84;27371;-83
2021/08/04 03:36:40;;;;;;;7.55;4.28;;;;;;;13.39;77.69;97026.92;1673719;84;25694;-83
2021/08/04 03:39:06;;;;;;;7.15;3.90;;;;;;;13.43;77.81;97028.59;1673621;84;25685;-83
2021/08/04 03:41:33;;;;;;;7.20;4.08;;;;;;;13.47;77.80;97031.14;1673624;84;25744;-83
2021/08/04 03:44:00;;;;;;;7.62;4.40;;;;;;;13.46;77.78;97030.84;1673673;84;25760;-84
2021/08/04 03:46:26;;;;;;;10.43;4.67;;;;;;;13.48;77.92;97036.33;1673675;85;27988;-84
2021/08/04 03:48:53;;;;;;;5.72;4.03;;;;;;;13.51;77.97;97050.77;1673537;84;26354;-84
2021/08/04 03:51:19;;;;;;;7.75;4.35;;;;;;;13.56;77.92;97063.59;1673742;84;25704;-83
2021/08/04 03:53:46;;;;;;;7.62;4.72;;;;;;;13.60;77.94;97079.16;1673619;84;25973;-82
2021/08/04 03:56:13;;;;;;;9.25;5.30;;;;;;;13.64;77.99;97077.60;1673768;84;25819;-83
2021/08/04 03:58:39;;;;;;;7.33;4.83;;;;;;;13.68;77.97;97077.95;1673615;84;26495;-83
2021/08/04 04:01:06;;;;;;;9.83;5.50;;;;;;;13.72;78.06;97077.78;1673564;84;25684;-84
2021/08/04 04:03:32;;;;;;;7.40;4.75;;;;;;;13.75;78.07;97078.67;1673727;84;25375;-83
2021/08/04 04:05:59;;;;;;;6.97;4.87;;;;;;;13.79;78.16;97084.42;1674167;84;25820;-84
2021/08/04 04:08:26;;;;;;;6.83;5.35;;;;;;;13.82;78.21;97087.48;1674303;84;26455;-83
2021/08/04 04:10:52;;;;;;;9.60;4.35;;;;;;;13.87;78.41;97085.42;1673587;84;27376;-84
2021/08/04 04:13:19;;;;;;;6.65;4.65;;;;;;;13.88;78.58;97083.83;1673770;84;25332;-85
2021/08/04 04:15:45;;;;;;;7.37;4.30;;;;;;;13.91;78.68;97077.90;1674160;84;25715;-87
2021/08/04 04:18:12;;;;;;;8.15;4.47;;;;;;;13.96;78.91;97080.73;1674213;84;25720;-82
2021/08/04 04:20:39;;;;;;;7.80;5.03;;;;;;;14.00;78.96;97085.16;1674273;84;25685;-85
2021/08/04 04:23:05;;;;;;;5.87;5.00;;;;;;;14.05;78.98;97078.45;1674211;84;27537;-84
2021/08/04 04:25:32;;;;;;;6.33;4.70;;;;;;;14.11;79.03;97081.58;1674121;84;25844;-82
2021/08/04 04:27:58;;;;;;;11.63;6.78;;;;;;;14.13;79.13;97077.27;1674340;84;25743;-81
2021/08/04 04:30:25;;;;;;;9.85;8.35;;;;;;;14.15;79.15;97072.39;1674290;84;25781;-87
2021/08/04 04:32:52;;;;;;;14.98;8.98;;;;;;;14.13;79.15;97069.92;1674304;84;25733;-85
2021/08/04 04:35:18;;;;;;;9.90;6.90;;;;;;;14.11;79.14;97067.18;1674090;84;28171;-85
2021/08/04 04:37:45;;;;;;;9.10;5.25;;;;;;;14.12;79.17;97057.97;1674115;84;25747;-80
2021/08/04 04:40:12;;;;;;;7.22;5.62;;;;;;;14.13;79.21;97046.84;1674260;84;25735;-85
2021/08/04 04:42:40;;;;;;;5.28;4.70;;;;;;;14.15;79.26;97045.25;1674190;84;26204;-80
2021/08/04 04:45:07;;;;;;;6.03;5.42;;;;;;;14.13;79.28;97046.84;1674254;84;25810;-85
2021/08/04 04:47:34;;;;;;;6.62;5.03;;;;;;;14.14;79.39;97059.89;1654930;84;28173;-83
2021/08/04 04:50:00;;;;;;;11.18;5.50;;;;;;;14.15;79.49;97058.82;1674094;84;25778;-81
2021/08/04 04:52:27;;;;;;;9.30;5.20;;;;;;;14.15;79.58;97047.97;1674169;84;25282;-84
2021/08/04 04:54:54;;;;;;;9.53;6.20;;;;;;;14.16;79.67;97044.19;1674220;84;26246;-82
2021/08/04 04:57:20;;;;;;;6.97;5.22;;;;;;;14.19;79.72;97043.70;1674233;84;25800;-83
2021/08/04 04:59:47;;;;;;;6.87;4.60;;;;;;;14.21;79.78;97047.84;1674201;84;27373;-84
2021/08/04 05:02:13;;;;;;;5.17;4.65;;;;;;;14.26;79.86;97032.16;1674105;84;26425;-82
2021/08/04 05:04:40;;;;;;;7.08;4.55;;;;;;;14.34;79.92;97038.57;1672224;84;25756;-85
2021/08/04 05:07:07;;;;;;;7.20;4.47;;;;;;;14.39;79.99;97035.92;1672263;84;25508;-84
2021/08/04 05:09:33;;;;;;;8.45;4.85;;;;;;;14.44;80.00;97023.84;1672354;84;25805;-85
2021/08/04 05:12:00;;;;;;;9.48;4.72;;;;;;;14.49;80.10;97024.48;1648282;85;27310;-82
2021/08/04 05:14:26;;;;;;;7.45;5.00;;;;;;;14.55;80.16;97016.16;1647885;85;26053;-82
2021/08/04 05:16:53;;;;;;;6.60;4.78;;;;;;;14.58;80.21;97010.77;1648097;85;25768;-83
2021/08/04 05:19:20;;;;;;;10.43;5.85;;;;;;;14.62;80.33;97010.02;1648254;85;25815;-82
2021/08/04 05:21:46;;;;;;;7.97;5.28;;;;;;;14.67;80.37;97000.61;1648305;85;25712;-84
2021/08/04 05:24:13;;;;;;;7.67;4.90;;;;;;;14.75;80.47;97006.98;1648357;85;27371;-82
2021/08/04 05:26:40;;;;;;;7.10;4.42;;;;;;;14.84;80.54;97017.45;1648248;85;26178;-83
2021/08/04 05:29:06;;;;;;;6.28;4.33;;;;;;;14.93;80.47;97013.23;1648323;85;25882;-84
2021/08/04 05:31:33;;;;;;;5.55;4.33;;;;;;;15.00;80.38;97018.78;1648219;85;26041;-84
2021/08/04 05:33:59;;;;;;;6.28;5.15;;;;;;;15.04;80.34;97021.30;1648204;85;25700;-81
2021/08/04 05:36:26;;;;;;;6.45;4.92;;;;;;;15.08;80.12;97018.91;1648322;85;28180;-83
2021/08/04 05:38:53;;;;;;;6.22;4.60;;;;;;;15.11;80.14;97019.22;1648120;85;25711;-85
2021/08/04 05:41:20;;;;;;;5.65;4.25;;;;;;;15.13;80.14;97022.52;1654502;85;25833;-84
2021/08/04 05:43:47;;;;;;;6.53;4.60;;;;;;;15.18;80.14;97021.77;1648271;85;26705;-81
2021/08/04 05:46:13;;;;;;;5.40;4.60;;;;;;;15.22;80.10;97015.28;1648258;85;25744;-86
2021/08/04 05:48:40;;;;;;;5.40;4.15;;;;;;;15.28;80.13;97014.30;1648179;85;26816;-84
2021/08/04 05:51:06;;;;;;;6.83;4.10;;;;;;;15.33;80.09;97012.48;1648241;85;25749;-83
2021/08/04 05:53:33;;;;;;;9.00;4.50;;;;;;;15.38;80.10;97004.38;1648358;85;25814;-82
2021/08/04 05:56:00;;;;;;;6.70;4.50;;;;;;;15.45;80.13;97009.12;1648016;85;25897;-83
2021/08/04 05:58:26;;;;;;;5.60;4.33;;;;;;;15.49;80.12;97007.52;1648215;85;26098;-83
2021/08/04 06:00:53;;;;;;;6.45;4.37;;;;;;;15.58;80.26;97005.77;1648226;85;27370;-82
2021/08/04 06:03:20;;;;;;;5.72;5.12;;;;;;;15.65;80.24;97005.86;1650413;85;25719;-85
2021/08/04 06:05:47;;;;;;;7.62;5.25;;;;;;;15.70;80.12;96996.91;1659607;85;25885;-84
2021/08/04 06:08:13;;;;;;;7.65;6.17;;;;;;;15.77;79.96;96997.56;1659417;85;25742;-84
2021/08/04 06:10:40;;;;;;;6.78;5.37;;;;;;;15.84;80.04;97002.26;1659282;85;25731;-83
2021/08/04 06:13:06;;;;;;;5.60;4.90;;;;;;;15.91;80.11;97002.91;1651034;85;27368;-84
2021/08/04 06:15:33;;;;;;;7.10;5.50;;;;;;;15.97;80.05;97000.50;1659531;85;25814;-83
2021/08/04 06:18:00;;;;;;;5.80;5.05;;;;;;;15.99;79.91;96995.63;1659506;85;25274;-87
2021/08/04 06:20:27;;;;;;;8.80;5.65;;;;;;;16.05;79.79;96997.34;1662861;85;26426;-86
2021/08/04 06:22:53;;;;;;;5.60;4.75;;;;;;;16.11;79.59;96999.03;1664104;86;25290;-85
2021/08/04 06:25:20;;;;;;;6.67;4.20;;;;;;;16.17;79.47;97003.47;1666762;85;27382;-86
2021/08/04 06:27:46;;;;;;;4.42;4.03;;;;;;;16.25;79.31;97001.35;1665846;84;25821;-86
2021/08/04 06:30:13;;;;;;;5.30;4.22;;;;;;;16.33;79.28;97004.96;1668533;85;26333;-86
2021/08/04 06:32:40;;;;;;;5.00;4.28;;;;;;;16.39;79.06;96999.86;1659579;85;25774;-84
2021/08/04 06:35:09;;;;;;;5.22;4.40;;;;;;;16.46;78.94;96999.09;1669947;84;25760;-85
2021/08/04 06:37:36;;;;;;;5.58;4.28;;;;;;;16.47;78.75;97002.11;1663487;85;27406;-84
2021/08/04 06:40:04;;;;;;;9.30;5.15;;;;;;;16.49;78.82;97005.40;1663995;86;25792;-85
2021/08/04 06:42:31;;;;;;;5.05;4.08;;;;;;;16.56;78.89;97005.45;1662737;86;25290;-85
2021/08/04 06:44:57;;;;;;;5.83;4.72;;;;;;;16.64;79.06;97005.58;1663118;85;25941;-85
2021/08/04 06:47:24;;;;;;;6.05;4.58;;;;;;;16.72;79.28;97005.09;1658467;86;25773;-85
2021/08/04 06:49:51;;;;;;;5.55;4.53;;;;;;;16.78;79.30;96998.61;1663987;86;27330;-85
2021/08/04 06:52:17;;;;;;;6.00;5.05;;;;;;;16.82;79.15;97001.62;1663952;86;25766;-84
2021/08/04 06:54:44;;;;;;;7.08;4.60;;;;;;;16.87;79.17;96997.04;1662646;86;25829;-86
2021/08/04 06:57:10;;;;;;;6.83;4.50;;;;;;;16.94;79.26;97003.62;1664031;86;25752;-84
2021/08/04 06:59:37;;;;;;;6.35;4.83;;;;;;;16.99;79.05;97008.30;1664019;86;26041;-85
2021/08/04 07:02:04;;;;;;;5.20;4.08;;;;;;;17.03;78.61;97005.30;1663842;86;27432;-83
2021/08/04 07:04:31;;;;;;;6.87;4.80;;;;;;;17.12;78.69;97005.94;1662284;85;25810;-83
2021/08/04 07:07:02;;;;;;;5.30;4.15;;;;;;;17.21;78.74;97002.17;1646796;85;25891;-83
2021/08/04 07:09:35;;;;;;;6.45;4.67;;;;;;;17.34;78.74;97000.34;1664416;84;25886;-83
2021/08/04 07:12:03;;;;;;;8.25;4.87;;;;;;;17.47;78.47;97001.24;1690389;84;25669;-83
2021/08/04 07:14:29;;;;;;;6.30;5.12;;;;;;;17.57;78.22;97004.02;1690516;84;27385;-82
2021/08/04 07:16:56;;;;;;;8.70;4.80;;;;;;;17.69;78.15;97002.47;1690333;84;25693;-82
2021/08/04 07:19:22;;;;;;;7.20;4.70;;;;;;;17.78;77.92;97000.03;1690447;84;25787;-81
2021/08/04 07:21:49;;;;;;;9.20;4.85;;;;;;;17.87;77.70;97001.98;1689052;84;25831;-82
2021/08/04 07:24:16;;;;;;;8.75;4.92;;;;;;;17.89;77.42;97003.08;1684107;84;25772;-83
2021/08/04 07:26:43;;;;;;;5.00;4.50;;;;;;;17.95;77.85;97000.12;1692966;84;27370;-83
2021/08/04 07:29:11;;;;;;;5.67;4.67;;;;;;;18.08;77.99;97000.16;1692859;84;26191;-83
2021/08/04 07:31:39;;;;;;;6.70;4.40;;;;;;;18.19;77.82;96997.73;1692919;84;25772;-83
2021/08/04 07:34:06;;;;;;;5.95;4.12;;;;;;;18.24;77.34;96999.09;1692915;84;25682;-83
2021/08/04 07:36:33;;;;;;;4.83;4.40;;;;;;;18.32;77.33;96994.48;1693057;84;25837;-82
2021/08/04 07:38:59;;;;;;;6.78;4.17;;;;;;;18.46;77.18;97000.24;1692865;84;28296;-83
2021/08/04 07:41:26;;;;;;;4.65;3.75;;;;;;;18.61;77.10;96995.34;1692991;84;26380;-82
2021/08/04 07:43:53;;;;;;;4.75;4.25;;;;;;;18.73;76.80;96986.33;1692983;84;25724;-82
2021/08/04 07:46:22;;;;;;;6.55;4.62;;;;;;;18.90;76.84;96989.62;1692988;84;25903;-85
2021/08/04 07:48:49;;;;;;;6.37;4.65;;;;;;;19.06;76.68;96988.52;1692918;84;25653;-83
2021/08/04 07:51:17;;;;;;;6.45;3.75;;;;;;;19.27;76.75;96980.27;1662937;84;27376;-83
2021/08/04 07:53:43;;;;;;;7.40;3.70;;;;;;;19.54;76.23;96984.89;1692815;84;25719;-86
2021/08/04 07:56:11;;;;;;;5.15;3.67;;;;;;;19.78;75.53;96982.34;1692973;84;25793;-84
2021/08/04 07:58:37;;;;;;;5.42;3.80;;;;;;;19.93;75.40;96984.16;1692921;84;26328;-82
2021/08/04 08:01:04;;;;;;;6.70;3.80;;;;;;;20.13;75.52;96986.27;1692961;84;25729;-82
2021/08/04 08:03:31;;;;;;;6.20;4.15;;;;;;;20.32;75.03;96982.31;1692905;84;27341;-82
2021/08/04 08:05:58;;;;;;;5.00;4.10;;;;;;;20.43;74.50;96989.39;1692368;84;25260;-84
2021/08/04 08:08:24;;;;;;;5.05;4.17;;;;;;;20.54;74.04;96992.06;1693048;84;25211;-82
2021/08/04 08:10:51;;;;;;;5.08;3.40;;;;;;;20.66;73.55;96984.30;1692766;84;26175;-83
2021/08/04 08:13:18;;;;;;;6.30;3.30;;;;;;;20.82;73.21;96981.16;1692979;84;25687;-83
2021/08/04 08:15:45;;;;;;;6.20;3.12;;;;;;;21.04;72.74;96977.13;1692903;84;27377;-81
2021/08/04 08:18:13;;;;;;;5.35;3.70;;;;;;;21.31;72.59;96980.74;1692808;84;25788;-87
2021/08/04 08:20:41;;;;;;;3.70;3.40;;;;;;;21.53;72.26;96979.67;1692946;84;25725;-82
2021/08/04 08:23:09;;;;;;;4.28;3.47;;;;;;;21.70;71.76;96980.04;1693075;84;25671;-86
2021/08/04 08:25:37;;;;;;;4.17;3.35;;;;;;;22.04;71.47;96980.47;1692276;84;25247;-83
2021/08/04 08:28:04;;;;;;;4.22;3.37;;;;;;;22.44;70.53;96981.29;1692932;84;28153;-82
2021/08/04 08:30:31;;;;;;;3.45;2.98;;;;;;;22.83;70.07;96969.14;1692667;84;25808;-84
2021/08/04 08:32:58;;;;;;;3.92;2.90;;;;;;;23.07;69.46;96971.20;1692879;84;25707;-87
2021/08/04 08:35:24;;;;;;;4.03;2.87;;;;;;;23.33;68.65;96977.08;1693006;84;25733;-84
2021/08/04 08:37:51;;;;;;;3.25;2.95;;;;;;;23.63;68.39;96980.67;1693221;84;26353;-83
2021/08/04 08:40:19;;;;;;;4.33;2.92;;;;;;;24.06;67.90;96974.83;1693025;84;27370;-83
2021/08/04 08:42:46;;;;;;;3.67;2.80;;;;;;;24.42;67.50;96972.13;1675262;84;25817;-86
2021/08/04 08:45:13;;;;;;;3.00;2.80;;;;;;;24.74;67.02;96971.95;1693021;84;25634;-87
2021/08/04 08:47:43;;;;;;;2.90;2.60;;;;;;;25.10;66.34;96962.80;1693073;84;25812;-83
2021/08/04 08:50:12;;;;;;;3.47;2.40;;;;;;;25.26;65.26;96965.41;1693095;84;25809;-83
2021/08/04 08:52:39;;;;;;;3.05;2.12;;;;;;;25.49;64.56;96962.84;1692856;84;27385;-93
2021/08/04 08:55:08;;;;;;;2.42;2.22;;;;;;;25.71;64.10;96959.81;1692940;84;26344;-84
2021/08/04 08:57:35;;;;;;;2.40;2.20;;;;;;;25.86;63.45;96963.50;1693208;84;26382;-84
2021/08/04 09:00:03;;;;;;;3.47;2.42;;;;;;;26.16;63.18;96952.13;1692733;84;25800;-83
2021/08/04 09:02:29;;;;;;;3.22;1.87;;;;;;;26.48;61.99;96959.19;1693182;84;25809;-84
2021/08/04 09:05:04;;;;;;;3.60;3.10;;;;;;;26.74;61.21;96950.32;1692050;84;28780;-85
2021/08/04 09:07:37;;;;;;;3.02;2.30;;;;;;;26.90;60.51;96943.72;1690986;84;25748;-84
2021/08/04 09:10:25;;;;;;;2.47;2.27;;;;;;;27.01;59.65;96942.27;1691001;84;25887;-83
2021/08/04 09:12:56;;;;;;;4.03;2.02;;;;;;;26.95;58.85;96942.18;1691170;84;25684;-83
2021/08/04 09:15:30;;;;;;;2.95;2.20;;;;;;;26.75;58.47;96949.18;1691090;84;25785;-84
2021/08/04 09:18:12;;;;;;;3.95;2.10;;;;;;;26.74;58.10;96937.05;1691070;84;27502;-86
2021/08/04 09:20:53;;;;;;;4.35;1.85;;;;;;;26.67;58.00;96937.55;1672029;84;25751;-86
2021/08/04 09:23:25;;;;;;;5.00;2.35;;;;;;;26.78;57.50;96933.31;1691270;84;25799;-85
2021/08/04 09:26:13;;;;;;;2.40;2.20;;;;;;;26.57;57.49;96927.38;1680859;84;25766;-94
2021/08/04 09:29:09;;;;;;;2.45;2.12;;;;;;;26.52;57.85;96932.50;1677139;84;25741;-88
2021/08/04 09:31:51;;;;;;;4.00;2.30;;;;;;;26.61;57.61;96933.30;1690904;84;27595;-92
2021/08/04 09:34:35;;;;;;;5.40;3.05;;;;;;;26.47;57.55;96939.56;1688835;84;25894;-86
2021/08/04 09:37:11;;;;;;;2.62;2.42;;;;;;;26.50;57.32;96939.73;1686175;84;25291;-87
2021/08/04 09:39:41;;;;;;;2.10;1.90;;;;;;;26.54;56.62;96944.06;1686521;84;25714;-87
2021/08/04 09:42:09;;;;;;;3.62;2.17;;;;;;;26.55;56.16;96937.39;1676911;84;25709;-87
2021/08/04 09:44:58;;;;;;;2.90;2.45;;;;;;;26.42;55.50;96942.52;1678962;84;27557;-84
2021/08/04 09:47:26;;;;;;;2.65;2.02;;;;;;;26.27;55.53;96940.99;1678863;84;25691;-86
2021/08/04 09:50:07;;;;;;;3.02;2.00;;;;;;;26.24;55.55;96941.63;1678844;84;25795;-86
2021/08/04 09:52:35;;;;;;;4.45;2.10;;;;;;;26.14;55.29;96932.27;1679069;84;26368;-85
2021/08/04 09:55:17;;;;;;;2.12;1.75;;;;;;;25.95;55.90;96933.95;1678885;84;25703;-88
2021/08/04 09:57:47;;;;;;;2.85;1.75;;;;;;;26.01;55.71;96934.59;1685767;84;28350;-86
2021/08/04 10:00:16;;;;;;;3.30;2.30;;;;;;;26.13;55.75;96927.88;1663460;84;25728;-85
2021/08/04 10:02:44;;;;;;;2.17;2.00;;;;;;;26.14;55.88;96934.47;1663612;84;25812;-88
2021/08/04 10:05:24;;;;;;;4.40;2.37;;;;;;;25.98;56.02;96936.61;1671598;84;26370;-89
2021/08/04 10:08:09;;;;;;;2.92;2.47;;;;;;;26.00;55.80;96937.93;1685555;84;26368;-91
2021/08/04 10:10:42;;;;;;;2.10;2.00;;;;;;;26.25;56.14;96935.53;1673940;84;27483;-90
2021/08/04 10:13:14;;;;;;;2.55;2.35;;;;;;;26.15;55.29;96934.72;1690454;84;25861;-88
2021/08/04 10:15:44;;;;;;;3.80;2.33;;;;;;;25.88;55.47;96933.59;1690650;84;26038;-92
2021/08/04 10:18:21;;;;;;;2.90;2.45;;;;;;;25.62;55.29;96925.77;1679982;84;26305;-86
2021/08/04 10:20:52;;;;;;;3.17;2.58;;;;;;;25.36;55.27;96930.59;1675480;84;25875;-85
2021/08/04 10:23:20;;;;;;;4.28;2.02;;;;;;;25.09;55.48;96926.66;1682540;84;28169;-86
2021/08/04 10:25:48;;;;;;;2.25;2.05;;;;;;;24.80;55.54;96922.13;1692924;84;25826;-88
2021/08/04 10:28:16;;;;;;;2.50;2.22;;;;;;;24.49;56.13;96924.27;1692900;84;26362;-87
2021/08/04 10:30:45;;;;;;;4.20;2.72;;;;;;;24.42;56.45;96928.00;1689140;84;25859;-89
2021/08/04 10:33:13;;;;;;;2.35;2.15;;;;;;;24.32;56.43;96932.38;1627848;87;25831;-89
2021/08/04 10:35:47;;;;;;;2.35;2.15;;;;;;;24.16;56.35;96933.80;1646909;85;27536;-89
2021/08/04 10:38:21;;;;;;;3.75;2.20;;;;;;;23.95;56.67;96937.58;1654335;84;25808;-91
2021/08/04 10:41:19;;;;;;;2.60;2.40;;;;;;;23.83;56.69;96938.66;1696422;83;25745;-89
2021/08/04 10:43:53;;;;;;;2.75;2.55;;;;;;;23.79;56.73;96941.80;1646909;85;25667;-89
2021/08/04 10:46:37;;;;;;;2.58;2.37;;;;;;;23.76;57.07;96941.84;1673800;84;25760;-86
2021/08/04 10:49:12;;;;;;;2.45;2.25;;;;;;;23.63;57.37;96937.16;1681335;84;27372;-91
2021/08/04 10:51:51;;;;;;;3.67;2.15;;;;;;;23.40;57.62;96938.14;1684656;84;25842;-86
2021/08/04 10:54:20;;;;;;;2.92;2.72;;;;;;;23.42;57.56;96937.28;1682910;84;25806;-89
2021/08/04 10:56:54;;;;;;;2.30;2.10;;;;;;;23.45;57.70;96932.52;1684216;84;25866;-85
2021/08/04 10:59:34;;;;;;;3.25;1.98;;;;;;;23.46;57.70;96932.77;1649552;85;25775;-86
2021/08/04 11:02:08;;;;;;;2.85;2.37;;;;;;;23.48;57.43;96930.53;1668598;85;28269;-88
2021/08/04 11:04:43;;;;;;;2.15;2.00;;;;;;;23.40;57.94;96931.25;1673772;84;25787;-87
2021/08/04 11:07:21;;;;;;;3.50;2.30;;;;;;;23.31;58.23;96930.56;1673380;84;25779;-86
2021/08/04 11:09:53;;;;;;;2.33;2.00;;;;;;;23.43;58.63;96929.24;1671009;84;26057;-92
2021/08/04 11:12:21;;;;;;;4.90;2.20;;;;;;;23.61;58.22;96931.13;1673676;84;25737;-91
2021/08/04 11:14:50;;;;;;;2.15;1.90;;;;;;;23.72;58.40;96931.17;1673623;84;27555;-86
2021/08/04 11:17:21;;;;;;;2.65;2.45;;;;;;;23.95;58.15;96935.64;1673689;84;25885;-88
2021/08/04 11:20:04;;;;;;;2.75;2.10;;;;;;;24.20;58.02;96937.02;1673855;84;25313;-89
2021/08/04 11:22:39;;;;;;;2.80;2.52;;;;;;;24.30;57.60;96931.87;1662069;84;25696;-90
2021/08/04 11:25:33;;;;;;;2.30;2.10;;;;;;;24.32;57.08;96934.57;1673762;85;25774;-91
2021/08/04 11:28:16;;;;;;;2.65;2.42;;;;;;;24.29;56.88;96942.08;1673724;84;28064;-89
2021/08/04 11:30:50;;;;;;;2.25;2.05;;;;;;;24.11;56.90;96944.97;1673841;84;25881;-89
2021/08/04 11:33:27;;;;;;;3.35;2.20;;;;;;;23.84;56.80;96936.98;1673114;84;26528;-88
2021/08/04 11:36:10;;;;;;;2.47;2.27;;;;;;;23.69;57.17;96932.59;1673873;84;26701;-88
2021/08/04 11:38:57;;;;;;;2.95;2.10;;;;;;;23.58;57.29;96928.98;1673638;84;25810;-87
2021/08/04 11:41:32;;;;;;;2.20;1.95;;;;;;;23.46;57.57;96930.83;1673704;84;28212;-87
2021/08/04 11:44:15;;;;;;;2.17;2.02;;;;;;;23.31;57.79;96934.69;1673751;84;25696;-87
2021/08/04 11:46:50;;;;;;;2.42;2.20;;;;;;;23.27;57.71;96932.31;1579545;89;26537;-87